Time,TemperatureF,DewpointF,PressureIn,WindDirection,WindDirectionDegrees,WindSpeedMPH,WindSpeedGustMPH,Humidity,HourlyPrecipIn,Conditions,Clouds,dailyrainin,SoftwareType,DateUTC
2013-05-27 00:00:00,53.8,44.6,30.16,NW,325,0.0,0.0,71,0.00,CLR,,0.00,WeatherDisplay:10.37,2013-05-27 04:00:00,
2013-05-27 00:15:00,51.6,44.3,30.19,NW,325,0.0,0.0,76,0.00,CLR,,0.00,WeatherDisplay:10.37,2013-05-27 04:15:00,
2013-05-27 00:30:00,51.6,44.3,30.19,NW,325,0.0,0.0,76,0.00,CLR,,0.00,WeatherDisplay:10.37,2013-05-27 04:30:00,
2013-05-27 00:45:00,51.6,44.3,30.19,NW,325,0.0,0.0,76,0.00,CLR,,0.00,WeatherDisplay:10.37,2013-05-27 04:45:00,
2013-05-27 01:00:00,50.7,44.4,30.22,NW,325,0.0,0.0,79,0.00,CLR,,0.00,WeatherDisplay:10.37,2013-05-27 05:00:00,
2013-05-27 01:15:00,50.9,44.9,30.22,North,355,0.0,0.0,80,0.00,CLR,,0.00,WeatherDisplay:10.37,2013-05-27 05:15:00,
2013-05-27 01:30:00,50.7,44.8,30.22,North,355,0.0,0.0,80,0.00,CLR,,0.00,WeatherDisplay:10.37,2013-05-27 05:30:00,
2013-05-27 01:45:00,50.5,44.3,30.22,North,355,0.0,0.0,79,0.00,CLR,,0.00,WeatherDisplay:10.37,2013-05-27 05:45:00,
2013-05-27 02:00:00,50.2,44.2,30.22,North,355,0.0,0.0,80,0.00,CLR,,0.00,WeatherDisplay:10.37,2013-05-27 06:00:00,
2013-05-27 02:15:00,49.8,44.9,30.22,North,355,0.0,0.0,83,0.00,CLR,,0.00,WeatherDisplay:10.37,2013-05-27 06:15:00,
2013-05-27 02:30:00,48.9,44.0,30.22,North,355,0.0,0.0,83,0.00,CLR,,0.00,WeatherDisplay:10.37,2013-05-27 06:30:00,
2013-05-27 02:45:00,48.6,43.6,30.22,North,350,0.0,0.0,83,0.00,CLR,,0.00,WeatherDisplay:10.37,2013-05-27 06:45:00,
2013-05-27 03:00:00,48.6,43.6,30.22,North,350,0.0,0.0,83,0.00,CLR,,0.00,WeatherDisplay:10.37,2013-05-27 07:00:00,
2013-05-27 03:15:00,47.8,42.6,30.22,North,350,0.0,0.0,82,0.00,CLR,,0.00,WeatherDisplay:10.37,2013-05-27 07:15:00,
2013-05-27 03:30:00,47.7,42.4,30.22,North,354,0.0,0.0,82,0.00,CLR,,0.00,WeatherDisplay:10.37,2013-05-27 07:30:00,
2013-05-27 03:45:00,47.5,41.9,30.22,North,355,0.0,0.0,81,0.00,CLR,,0.00,WeatherDisplay:10.37,2013-05-27 07:45:00,
2013-05-27 04:00:00,47.1,41.3,30.22,North,355,0.0,0.0,80,0.00,CLR,,0.00,WeatherDisplay:10.37,2013-05-27 08:00:00,
2013-05-27 04:15:00,46.8,40.9,30.22,North,355,0.0,0.0,80,0.00,CLR,,0.00,WeatherDisplay:10.37,2013-05-27 08:15:00,
2013-05-27 04:30:00,46.9,41.1,30.22,North,355,0.0,0.0,80,0.00,CLR,,0.00,WeatherDisplay:10.37,2013-05-27 08:30:00,
2013-05-27 04:45:00,47.1,41.6,30.22,North,355,0.0,0.0,81,0.00,CLR,,0.00,WeatherDisplay:10.37,2013-05-27 08:45:00,
2013-05-27 05:00:00,46.9,41.4,30.22,North,355,0.0,0.0,81,0.00,CLR,,0.00,WeatherDisplay:10.37,2013-05-27 09:00:00,
2013-05-27 05:15:00,46.4,40.6,30.22,North,355,0.0,0.0,80,0.00,CLR,,0.00,WeatherDisplay:10.37,2013-05-27 09:15:00,
2013-05-27 05:30:00,45.9,40.7,30.22,North,355,0.0,0.0,82,0.00,CLR,,0.00,WeatherDisplay:10.37,2013-05-27 09:30:00,
2013-05-27 05:45:00,46.0,40.9,30.25,North,355,0.0,0.0,82,0.00,CLR,,0.00,WeatherDisplay:10.37,2013-05-27 09:45:00,
2013-05-27 06:00:00,46.2,41.7,30.25,North,355,0.0,0.0,84,0.00,CLR,,0.00,WeatherDisplay:10.37,2013-05-27 10:00:00,
2013-05-27 06:15:00,46.6,42.0,30.25,North,355,0.0,0.0,84,0.00,CLR,,0.00,WeatherDisplay:10.37,2013-05-27 10:15:00,
2013-05-27 06:30:00,47.1,42.5,30.25,North,355,0.0,0.0,84,0.00,CLR,,0.00,WeatherDisplay:10.37,2013-05-27 10:30:00,
2013-05-27 06:45:00,48.7,44.4,30.25,North,351,0.0,0.0,85,0.00,CLR,,0.00,WeatherDisplay:10.37,2013-05-27 10:45:00,
2013-05-27 07:00:00,51.8,45.5,30.25,North,355,0.0,0.0,79,0.00,CLR,,0.00,WeatherDisplay:10.37,2013-05-27 11:00:00,
2013-05-27 07:15:00,64.4,46.4,30.25,North,355,0.0,0.0,52,0.00,CLR,,0.00,WeatherDisplay:10.37,2013-05-27 11:15:00,
2013-05-27 07:30:00,65.7,45.4,30.25,NNE,13,0.0,0.0,48,0.00,CLR,,0.00,WeatherDisplay:10.37,2013-05-27 11:30:00,
2013-05-27 07:45:00,63.0,45.6,30.25,ESE,117,0.0,0.0,53,0.00,CLR,,0.00,WeatherDisplay:10.37,2013-05-27 11:45:00,
2013-05-27 08:00:00,63.5,46.6,30.25,NE,45,0.0,0.0,54,0.00,CLR,,0.00,WeatherDisplay:10.37,2013-05-27 12:00:00,
2013-05-27 08:15:00,63.7,44.7,30.25,ESE,123,0.0,0.0,50,0.00,CLR,,0.00,WeatherDisplay:10.37,2013-05-27 12:15:00,
2013-05-27 08:30:00,63.3,44.4,30.25,East,101,1.0,5.0,50,0.00,CLR,,0.00,WeatherDisplay:10.37,2013-05-27 12:30:00,
2013-05-27 08:45:00,63.9,44.9,30.25,ESE,108,1.0,5.0,50,0.00,CLR,,0.00,WeatherDisplay:10.37,2013-05-27 12:45:00,
2013-05-27 09:00:00,64.9,43.7,30.25,SSE,160,1.0,5.0,46,0.00,CLR,,0.00,WeatherDisplay:10.37,2013-05-27 13:00:00,
2013-05-27 09:15:00,65.5,44.7,30.28,SE,138,1.0,3.0,47,0.00,CLR,,0.00,WeatherDisplay:10.37,2013-05-27 13:15:00,
2013-05-27 09:30:00,66.6,44.0,30.25,ENE,78,1.0,4.0,44,0.00,CLR,,0.00,WeatherDisplay:10.37,2013-05-27 13:30:00,
2013-05-27 09:45:00,67.1,41.3,30.25,SE,126,0.0,3.0,39,0.00,CLR,,0.00,WeatherDisplay:10.37,2013-05-27 13:45:00,
2013-05-27 10:00:00,67.3,41.5,30.25,ESE,108,1.0,3.0,39,0.00,CLR,,0.00,WeatherDisplay:10.37,2013-05-27 14:00:00,
2013-05-27 10:15:00,68.9,42.9,30.25,West,275,1.0,3.0,39,0.00,CLR,,0.00,WeatherDisplay:10.37,2013-05-27 14:15:00,
2013-05-27 10:30:00,69.8,43.7,30.28,South,176,2.0,4.0,39,0.00,CLR,,0.00,WeatherDisplay:10.37,2013-05-27 14:30:00,
2013-05-27 10:45:00,70.0,43.9,30.25,NW,307,2.0,5.0,39,0.00,CLR,,0.00,WeatherDisplay:10.37,2013-05-27 14:45:00,
2013-05-27 11:00:00,69.8,43.7,30.25,NW,304,5.0,6.0,39,0.00,CLR,,0.00,WeatherDisplay:10.37,2013-05-27 15:00:00,
2013-05-27 11:15:00,71.6,45.3,30.25,WNW,282,5.0,6.0,39,0.00,CLR,,0.00,WeatherDisplay:10.37,2013-05-27 15:15:00,
2013-05-27 11:30:00,72.1,45.8,30.25,West,281,3.0,7.0,39,0.00,CLR,,0.00,WeatherDisplay:10.37,2013-05-27 15:30:00,
2013-05-27 11:45:00,72.5,46.1,30.25,WNW,289,5.0,7.0,39,0.00,CLR,,0.00,WeatherDisplay:10.37,2013-05-27 15:45:00,
2013-05-27 12:00:00,72.3,46.0,30.25,NW,319,5.0,6.0,39,0.00,CLR,,0.00,WeatherDisplay:10.37,2013-05-27 16:00:00,
2013-05-27 12:15:00,72.7,46.3,30.25,WNW,288,3.0,6.0,39,0.00,CLR,,0.00,WeatherDisplay:10.37,2013-05-27 16:15:00,
2013-05-27 12:30:00,73.8,47.3,30.25,NW,306,3.0,6.0,39,0.00,CLR,,0.00,WeatherDisplay:10.37,2013-05-27 16:30:00,
2013-05-27 12:45:00,71.6,45.3,30.25,WNW,295,5.0,5.0,39,0.00,CLR,,0.00,WeatherDisplay:10.37,2013-05-27 16:45:00,
2013-05-27 13:00:00,72.3,46.0,30.25,WNW,300,3.0,6.0,39,0.00,CLR,,0.00,WeatherDisplay:10.37,2013-05-27 17:00:00,
2013-05-27 13:15:00,72.0,45.6,30.25,NW,304,5.0,6.0,39,0.00,CLR,,0.00,WeatherDisplay:10.37,2013-05-27 17:15:00,
2013-05-27 13:30:00,72.5,46.1,30.25,NW,308,3.0,6.0,39,0.00,CLR,,0.00,WeatherDisplay:10.37,2013-05-27 17:30:00,
2013-05-27 13:45:00,73.2,46.8,30.25,NW,319,3.0,4.0,39,0.00,CLR,,0.00,WeatherDisplay:10.37,2013-05-27 17:45:00,
2013-05-27 14:00:00,75.4,48.7,30.22,NW,310,3.0,5.0,39,0.00,CLR,,0.00,WeatherDisplay:10.37,2013-05-27 18:00:00,
2013-05-27 14:15:00,75.4,48.7,30.22,West,278,2.0,3.0,39,0.00,CLR,,0.00,WeatherDisplay:10.37,2013-05-27 18:15:00,
2013-05-27 14:30:00,76.3,49.5,30.22,NNW,332,1.0,3.0,39,0.00,CLR,,0.00,WeatherDisplay:10.37,2013-05-27 18:30:00,
2013-05-27 14:45:00,77.5,50.6,30.22,NNW,328,0.0,1.0,39,0.00,CLR,,0.00,WeatherDisplay:10.37,2013-05-27 18:45:00,
2013-05-27 15:00:00,73.9,47.4,30.22,WNW,295,1.0,5.0,39,0.00,CLR,,0.00,WeatherDisplay:10.37,2013-05-27 19:00:00,
2013-05-27 15:15:00,74.7,48.1,30.22,WSW,255,2.0,5.0,39,0.00,CLR,,0.00,WeatherDisplay:10.37,2013-05-27 19:15:00,
2013-05-27 15:30:00,73.8,47.3,30.22,SE,137,2.0,5.0,39,0.00,CLR,,0.00,WeatherDisplay:10.37,2013-05-27 19:30:00,
2013-05-27 15:45:00,71.1,44.8,30.22,SE,138,5.0,6.0,39,0.00,CLR,,0.00,WeatherDisplay:10.37,2013-05-27 19:45:00,
2013-05-27 16:00:00,70.9,44.7,30.19,East,85,5.0,7.0,39,0.00,CLR,,0.00,WeatherDisplay:10.37,2013-05-27 20:00:00,
2013-05-27 16:15:00,72.1,45.8,30.19,SSW,195,5.0,6.0,39,0.00,CLR,,0.00,WeatherDisplay:10.37,2013-05-27 20:15:00,
2013-05-27 16:30:00,71.8,45.5,30.19,SE,132,2.0,5.0,39,0.00,CLR,,0.00,WeatherDisplay:10.37,2013-05-27 20:30:00,
2013-05-27 16:45:00,71.2,45.0,30.19,South,170,2.0,4.0,39,0.00,CLR,,0.00,WeatherDisplay:10.37,2013-05-27 20:45:00,
2013-05-27 17:00:00,71.6,45.3,30.19,SSE,165,2.0,5.0,39,0.00,CLR,,0.00,WeatherDisplay:10.37,2013-05-27 21:00:00,
2013-05-27 17:15:00,72.7,46.3,30.19,SE,133,2.0,4.0,39,0.00,CLR,,0.00,WeatherDisplay:10.37,2013-05-27 21:15:00,
2013-05-27 17:30:00,70.5,44.4,30.19,SSE,149,2.0,5.0,39,0.00,CLR,,0.00,WeatherDisplay:10.37,2013-05-27 21:30:00,
2013-05-27 17:45:00,70.5,45.7,30.19,SE,128,2.0,2.0,41,0.00,CLR,,0.00,WeatherDisplay:10.37,2013-05-27 21:45:00,
2013-05-27 18:00:00,69.1,43.7,30.19,SE,131,2.0,5.0,40,0.00,CLR,,0.00,WeatherDisplay:10.37,2013-05-27 22:00:00,
2013-05-27 18:15:00,68.2,43.6,30.19,SE,139,3.0,4.0,41,0.00,CLR,,0.00,WeatherDisplay:10.37,2013-05-27 22:15:00,
2013-05-27 18:30:00,67.5,44.8,30.19,SE,131,1.0,3.0,44,0.00,CLR,,0.00,WeatherDisplay:10.37,2013-05-27 22:30:00,
2013-05-27 18:45:00,66.6,45.1,30.19,SE,132,0.0,1.0,46,0.00,CLR,,0.00,WeatherDisplay:10.37,2013-05-27 22:45:00,
2013-05-27 19:00:00,65.7,46.0,30.19,SE,146,0.0,2.0,49,0.00,CLR,,0.00,WeatherDisplay:10.37,2013-05-27 23:00:00,
2013-05-27 19:15:00,64.9,45.8,30.19,SE,130,1.0,2.0,50,0.00,CLR,,0.00,WeatherDisplay:10.37,2013-05-27 23:15:00,
2013-05-27 19:30:00,64.4,46.9,30.19,SE,135,0.0,0.0,53,0.00,CLR,,0.00,WeatherDisplay:10.37,2013-05-27 23:30:00,
2013-05-27 19:45:00,63.3,47.3,30.19,ESE,120,0.0,1.0,56,0.00,CLR,,0.00,WeatherDisplay:10.37,2013-05-27 23:45:00,
2013-05-27 20:00:00,62.6,47.6,30.19,ESE,120,0.0,0.0,58,0.00,CLR,,0.00,WeatherDisplay:10.37,2013-05-28 00:00:00,
2013-05-27 20:15:00,61.5,47.5,30.19,SE,129,0.0,0.0,60,0.00,CLR,,0.00,WeatherDisplay:10.37,2013-05-28 00:15:00,
2013-05-27 20:30:00,60.8,47.7,30.19,SE,135,0.0,0.0,62,0.00,CLR,,0.00,WeatherDisplay:10.37,2013-05-28 00:30:00,
2013-05-27 20:45:00,60.3,48.4,30.19,SE,135,0.0,0.0,65,0.00,CLR,,0.00,WeatherDisplay:10.37,2013-05-28 00:45:00,
2013-05-27 21:00:00,59.7,48.3,30.19,SE,135,0.0,0.0,66,0.00,CLR,,0.00,WeatherDisplay:10.37,2013-05-28 01:00:00,
2013-05-27 21:15:00,59.2,48.6,30.19,SE,135,0.0,0.0,68,0.00,CLR,,0.00,WeatherDisplay:10.37,2013-05-28 01:15:00,
2013-05-27 21:30:00,58.8,48.7,30.19,SE,135,0.0,0.0,69,0.00,CLR,,0.00,WeatherDisplay:10.37,2013-05-28 01:30:00,
2013-05-27 21:45:00,58.6,48.9,30.19,SE,135,0.0,0.0,70,0.00,CLR,,0.00,WeatherDisplay:10.37,2013-05-28 01:45:00,
2013-05-27 22:00:00,58.5,49.5,30.19,SE,135,0.0,0.0,72,0.00,CLR,,0.00,WeatherDisplay:10.37,2013-05-28 02:00:00,
2013-05-27 22:15:00,58.1,49.1,30.22,SE,135,0.0,0.0,72,0.00,CLR,,0.00,WeatherDisplay:10.37,2013-05-28 02:15:00,
2013-05-27 22:30:00,57.6,49.3,30.22,SE,135,0.0,0.0,74,0.00,CLR,,0.00,WeatherDisplay:10.37,2013-05-28 02:30:00,
2013-05-27 22:45:00,57.0,49.9,30.22,SE,135,0.0,0.0,77,0.00,CLR,,0.00,WeatherDisplay:10.37,2013-05-28 02:45:00,
2013-05-27 23:00:00,56.7,49.9,30.22,SE,135,0.0,0.0,78,0.00,CLR,,0.00,WeatherDisplay:10.37,2013-05-28 03:00:00,
2013-05-27 23:15:00,56.3,49.9,30.22,SE,135,0.0,0.0,79,0.00,CLR,,0.00,WeatherDisplay:10.37,2013-05-28 03:15:00,
2013-05-27 23:30:00,56.1,50.0,30.22,SE,135,0.0,0.0,80,0.00,CLR,,0.00,WeatherDisplay:10.37,2013-05-28 03:30:00,
2013-05-27 23:45:00,55.6,49.8,30.22,SE,135,0.0,0.0,81,0.00,CLR,,0.00,WeatherDisplay:10.37,2013-05-28 03:45:00,